createdAt,value
2018-09-18T00:00:55.525Z,22.22
2018-09-18T00:01:55.514Z,22.27
2018-09-18T00:02:55.503Z,22.20
2018-09-18T00:03:55.518Z,22.22
2018-09-18T00:04:55.484Z,22.23
2018-09-18T00:05:55.468Z,22.28
2018-09-18T00:06:55.459Z,22.25
2018-09-18T00:07:55.447Z,22.22
2018-09-18T00:08:55.460Z,22.23
2018-09-18T00:09:55.424Z,22.27
2018-09-18T00:10:55.413Z,22.23
2018-09-18T00:11:55.404Z,22.23
2018-09-18T00:12:55.399Z,22.23
2018-09-18T00:13:55.400Z,22.23
2018-09-18T00:14:55.371Z,22.20
2018-09-18T00:15:55.367Z,22.28
2018-09-18T00:16:55.353Z,22.22
2018-09-18T00:17:55.338Z,22.27
2018-09-18T00:18:55.347Z,22.23
2018-09-18T00:19:55.315Z,22.23
2018-09-18T00:20:55.305Z,22.20
2018-09-18T00:21:55.292Z,22.28
2018-09-18T00:22:55.291Z,22.22
2018-09-18T00:23:55.292Z,22.29
2018-09-18T00:24:55.258Z,22.28
2018-09-18T00:25:55.249Z,22.22
2018-09-18T00:26:55.237Z,22.25
2018-09-18T00:27:55.231Z,22.22
2018-09-18T00:28:55.237Z,22.28
2018-09-18T00:29:55.209Z,22.27
2018-09-18T00:30:55.190Z,22.22
2018-09-18T00:31:55.181Z,22.20
2018-09-18T00:32:55.168Z,22.28
2018-09-18T00:33:55.180Z,22.22
2018-09-18T00:34:55.151Z,22.23
2018-09-18T00:35:55.141Z,22.20
2018-09-18T00:36:55.126Z,22.27
2018-09-18T00:37:55.113Z,22.22
2018-09-18T00:38:55.123Z,22.19
2018-09-18T00:39:55.091Z,22.25
2018-09-18T00:40:55.088Z,22.23
2018-09-18T00:41:55.068Z,22.23
2018-09-18T00:42:55.056Z,22.22
2018-09-18T00:43:55.067Z,22.19
2018-09-18T00:44:55.035Z,22.20
2018-09-18T00:45:55.027Z,22.23
2018-09-18T00:46:55.019Z,22.22
2018-09-18T00:47:55.003Z,22.28
2018-09-18T00:48:55.013Z,22.25
2018-09-18T00:49:55.002Z,22.23
2018-09-18T00:50:54.967Z,22.22
2018-09-18T00:51:54.956Z,22.19
2018-09-18T00:52:54.947Z,22.22
2018-09-18T00:53:54.943Z,22.27
2018-09-18T00:54:54.945Z,22.23
2018-09-18T00:55:54.911Z,22.19
2018-09-18T00:56:54.900Z,22.17
2018-09-18T00:57:54.890Z,22.19
2018-09-18T00:58:54.880Z,22.20
2018-09-18T00:59:54.889Z,22.22
2018-09-18T01:00:54.862Z,22.22
2018-09-18T01:01:54.851Z,22.27
2018-09-18T01:02:54.844Z,22.35
2018-09-18T01:03:54.822Z,22.23
2018-09-18T01:04:54.840Z,22.20
2018-09-18T01:05:54.810Z,22.22
2018-09-18T01:06:54.793Z,22.20
2018-09-18T01:07:54.780Z,22.29
2018-09-18T01:08:54.770Z,22.28
2018-09-18T01:09:54.776Z,22.20
2018-09-18T01:10:54.745Z,22.28
2018-09-18T01:11:54.746Z,22.17
2018-09-18T01:12:54.722Z,22.22
2018-09-18T01:13:54.710Z,22.20
2018-09-18T01:14:54.720Z,22.19
2018-09-18T01:15:54.688Z,22.23
2018-09-18T01:16:54.696Z,22.20
2018-09-18T01:17:54.667Z,22.20
2018-09-18T01:18:54.654Z,22.19
2018-09-18T01:19:54.664Z,22.19
2018-09-18T01:20:54.633Z,22.19
2018-09-18T01:21:54.623Z,22.20
2018-09-18T01:22:54.611Z,22.20
2018-09-18T01:23:54.603Z,22.22
2018-09-18T01:24:54.621Z,22.31
2018-09-18T01:25:54.586Z,22.23
2018-09-18T01:26:54.566Z,22.28
2018-09-18T01:27:54.555Z,22.19
2018-09-18T01:28:54.551Z,22.25
2018-09-18T01:29:54.553Z,22.20
2018-09-18T01:30:54.521Z,22.25
2018-09-18T01:31:54.511Z,22.19
2018-09-18T01:32:54.499Z,22.16
2018-09-18T01:33:54.493Z,22.22
2018-09-18T01:34:54.503Z,22.17
2018-09-18T01:35:54.466Z,22.25
2018-09-18T01:36:54.455Z,22.20
2018-09-18T01:37:54.444Z,22.17
2018-09-18T01:38:54.435Z,22.25
2018-09-18T01:39:54.442Z,22.23
2018-09-18T01:40:54.415Z,22.25
2018-09-18T01:41:54.404Z,22.19
2018-09-18T01:42:54.395Z,22.28
2018-09-18T01:43:54.439Z,22.19
2018-09-18T01:44:54.399Z,22.27
2018-09-18T01:45:54.354Z,22.20
2018-09-18T01:46:54.344Z,22.17
2018-09-18T01:47:54.332Z,22.14
2018-09-18T01:48:54.321Z,22.17
2018-09-18T01:49:54.332Z,22.19
2018-09-18T01:50:54.304Z,22.19
2018-09-18T01:51:54.296Z,22.20
2018-09-18T01:52:54.277Z,22.19
2018-09-18T01:53:54.265Z,22.22
2018-09-18T01:54:54.276Z,22.20
2018-09-18T01:55:54.243Z,22.19
2018-09-18T01:56:54.231Z,22.17
2018-09-18T01:57:54.229Z,22.20
2018-09-18T01:58:54.216Z,22.20
2018-09-18T01:59:54.229Z,22.25
2018-09-18T02:00:54.188Z,22.16
2018-09-18T02:01:54.179Z,22.17
2018-09-18T02:02:54.165Z,22.17
2018-09-18T02:03:54.154Z,22.20
2018-09-18T02:04:54.164Z,22.17
2018-09-18T02:05:54.140Z,22.16
2018-09-18T02:06:54.123Z,22.20
2018-09-18T02:07:54.112Z,22.22
2018-09-18T02:08:54.099Z,22.25
2018-09-18T02:09:54.108Z,22.22
2018-09-18T02:10:54.077Z,22.19
2018-09-18T02:11:54.068Z,22.19
2018-09-18T02:12:54.055Z,22.17
2018-09-18T02:13:54.043Z,22.20
2018-09-18T02:14:54.052Z,22.20
2018-09-18T02:15:54.021Z,22.13
2018-09-18T02:16:54.010Z,22.19
2018-09-18T02:17:54.008Z,22.19
2018-09-18T02:18:53.988Z,22.19
2018-09-18T02:19:53.997Z,22.20
2018-09-18T02:20:53.965Z,22.16
2018-09-18T02:21:53.975Z,22.19
2018-09-18T02:22:53.944Z,22.22
2018-09-18T02:23:53.935Z,22.25
2018-09-18T02:24:53.935Z,22.20
2018-09-18T02:25:53.932Z,22.17
2018-09-18T02:26:53.898Z,22.22
2018-09-18T02:27:53.887Z,22.12
2018-09-18T02:28:53.876Z,22.19
2018-09-18T02:29:53.865Z,22.17
2018-09-18T02:30:53.880Z,22.25
2018-09-18T02:31:53.846Z,22.16
2018-09-18T02:32:53.846Z,22.19
2018-09-18T02:33:53.824Z,22.20
2018-09-18T02:34:53.809Z,22.17
2018-09-18T02:35:53.818Z,22.19
2018-09-18T02:36:53.786Z,22.22
2018-09-18T02:37:53.776Z,22.23
2018-09-18T02:38:53.766Z,22.19
2018-09-18T02:39:53.757Z,22.14
2018-09-18T02:40:53.774Z,22.19
2018-09-18T02:41:53.730Z,22.22
2018-09-18T02:42:53.719Z,22.16
2018-09-18T02:43:53.707Z,22.12
2018-09-18T02:44:53.697Z,22.17
2018-09-18T02:45:53.708Z,22.23
2018-09-18T02:46:53.680Z,22.23
2018-09-18T02:47:53.664Z,22.17
2018-09-18T02:48:53.653Z,22.16
2018-09-18T02:49:53.641Z,22.22
2018-09-18T02:50:53.652Z,22.19
2018-09-18T02:51:53.619Z,22.22
2018-09-18T02:52:53.616Z,22.20
2018-09-18T02:53:53.600Z,22.14
2018-09-18T02:54:53.586Z,22.16
2018-09-18T02:55:53.596Z,22.16
2018-09-18T02:56:53.565Z,22.20
2018-09-18T02:57:53.553Z,22.17
2018-09-18T02:58:53.555Z,22.13
2018-09-18T02:59:53.531Z,22.29
2018-09-18T03:00:53.541Z,22.16
2018-09-18T03:01:53.508Z,22.17
2018-09-18T03:02:53.496Z,22.17
2018-09-18T03:03:53.485Z,22.16
2018-09-18T03:04:53.475Z,22.17
2018-09-18T03:05:53.495Z,22.12
2018-09-18T03:06:53.457Z,22.17
2018-09-18T03:07:53.441Z,22.16
2018-09-18T03:08:53.431Z,22.22
2018-09-18T03:09:53.420Z,22.22
2018-09-18T03:10:53.428Z,22.14
2018-09-18T03:11:53.396Z,22.19
2018-09-18T03:12:53.387Z,22.20
2018-09-18T03:13:53.376Z,22.20
2018-09-18T03:14:53.373Z,22.19
2018-09-18T03:15:53.373Z,22.17
2018-09-18T03:16:53.360Z,22.19
2018-09-18T03:17:53.334Z,22.16
2018-09-18T03:18:53.318Z,22.22
2018-09-18T03:19:53.308Z,22.25
2018-09-18T03:20:53.385Z,22.09
2018-09-18T03:21:53.284Z,22.12
2018-09-18T03:22:53.279Z,22.16
2018-09-18T03:23:53.264Z,22.19
2018-09-18T03:24:53.253Z,22.23
2018-09-18T03:25:53.265Z,22.16
2018-09-18T03:26:53.238Z,22.17
2018-09-18T03:27:53.218Z,22.19
2018-09-18T03:28:53.210Z,22.16
2018-09-18T03:29:53.197Z,22.22
2018-09-18T03:30:53.206Z,22.13
2018-09-18T03:31:53.189Z,22.19
2018-09-18T03:32:53.163Z,22.22
2018-09-18T03:33:53.151Z,22.19
2018-09-18T03:34:53.140Z,22.19
2018-09-18T03:35:53.149Z,22.22
2018-09-18T03:36:53.118Z,22.16
2018-09-18T03:37:53.119Z,22.17
2018-09-18T03:38:53.097Z,22.13
2018-09-18T03:39:53.084Z,22.10
2018-09-18T03:40:53.095Z,22.14
2018-09-18T03:41:53.070Z,22.16
2018-09-18T03:42:53.052Z,22.22
2018-09-18T03:43:53.046Z,22.14
2018-09-18T03:44:53.028Z,22.13
2018-09-18T03:45:53.038Z,22.14
2018-09-18T03:46:53.007Z,22.12
2018-09-18T03:47:56.118Z,22.14
2018-09-18T03:48:52.985Z,22.16
2018-09-18T03:49:52.984Z,22.14
2018-09-18T03:50:52.984Z,22.17
2018-09-18T03:51:52.951Z,22.14
2018-09-18T03:52:52.939Z,22.12
2018-09-18T03:53:52.929Z,22.12
2018-09-18T03:54:52.916Z,22.10
2018-09-18T03:55:52.940Z,22.14
2018-09-18T03:56:52.895Z,22.19
2018-09-18T03:57:52.885Z,22.10
2018-09-18T03:58:52.872Z,22.16
2018-09-18T03:59:52.862Z,22.12
2018-09-18T04:00:52.872Z,22.10
2018-09-18T04:01:52.843Z,22.13
2018-09-18T04:02:52.859Z,22.12
2018-09-18T04:03:52.839Z,22.19
2018-09-18T04:04:52.805Z,22.13
2018-09-18T04:05:52.794Z,22.16
2018-09-18T04:06:52.806Z,22.09
2018-09-18T04:07:52.780Z,22.13
2018-09-18T04:08:52.762Z,22.13
2018-09-18T04:09:52.750Z,22.14
2018-09-18T04:10:52.739Z,22.16
2018-09-18T04:11:52.749Z,22.17
2018-09-18T04:12:52.717Z,22.10
2018-09-18T04:13:52.707Z,22.10
2018-09-18T04:14:52.703Z,22.07
2018-09-18T04:15:52.683Z,22.16
2018-09-18T04:16:52.702Z,22.13
2018-09-18T04:17:52.667Z,22.19
2018-09-18T04:18:52.650Z,22.10
2018-09-18T04:19:52.642Z,22.16
2018-09-18T04:20:52.631Z,22.16
2018-09-18T04:21:52.638Z,22.16
2018-09-18T04:22:52.605Z,22.17
2018-09-18T04:23:52.596Z,22.10
2018-09-18T04:24:52.593Z,22.10
2018-09-18T04:25:52.578Z,22.16
2018-09-18T04:26:52.590Z,22.13
2018-09-18T04:27:52.556Z,22.04
2018-09-18T04:28:52.538Z,22.13
2018-09-18T04:29:52.527Z,22.09
2018-09-18T04:30:52.525Z,22.10
2018-09-18T04:31:52.527Z,22.13
2018-09-18T04:32:52.495Z,22.12
2018-09-18T04:33:52.482Z,22.19
2018-09-18T04:34:52.493Z,22.09
2018-09-18T04:35:52.461Z,22.16
2018-09-18T04:36:52.472Z,22.06
2018-09-18T04:37:52.437Z,22.06
2018-09-18T04:38:52.426Z,22.09
2018-09-18T04:39:52.419Z,22.09
2018-09-18T04:40:52.406Z,22.06
2018-09-18T04:41:52.426Z,22.10
2018-09-18T04:42:52.383Z,22.07
2018-09-18T04:43:52.373Z,22.12
2018-09-18T04:44:52.359Z,22.10
2018-09-18T04:45:52.359Z,22.07
2018-09-18T04:46:52.358Z,22.07
2018-09-18T04:47:52.331Z,22.14
2018-09-18T04:48:52.322Z,22.06
2018-09-18T04:49:52.310Z,22.10
2018-09-18T04:50:52.295Z,22.09
2018-09-18T04:51:52.303Z,22.01
2018-09-18T04:52:52.270Z,22.06
2018-09-18T04:53:52.259Z,22.07
2018-09-18T04:54:52.270Z,22.04
2018-09-18T04:55:52.241Z,22.06
2018-09-18T04:56:52.246Z,22.09
2018-09-18T04:57:52.214Z,22.06
2018-09-18T04:58:52.204Z,22.12
2018-09-18T04:59:52.193Z,22.06
2018-09-18T05:00:52.187Z,22.06
2018-09-18T05:01:52.195Z,22.12
2018-09-18T05:02:52.166Z,22.09
2018-09-18T05:03:52.148Z,22.09
2018-09-18T05:04:52.136Z,22.07
2018-09-18T05:05:52.126Z,22.10
2018-09-18T05:06:52.135Z,22.06
2018-09-18T05:07:52.104Z,22.09
2018-09-18T05:08:52.095Z,22.09
2018-09-18T05:09:52.083Z,22.07
2018-09-18T05:10:52.080Z,22.06
2018-09-18T05:11:52.080Z,22.12
2018-09-18T05:12:52.048Z,22.04
2018-09-18T05:13:52.082Z,22.02
2018-09-18T05:14:52.025Z,22.09
2018-09-18T05:15:52.013Z,22.04
2018-09-18T05:16:52.023Z,21.97
2018-09-18T05:17:51.993Z,21.91
2018-09-18T05:18:51.982Z,21.81
2018-09-18T05:19:51.971Z,21.82
2018-09-18T05:20:51.958Z,21.78
2018-09-18T05:21:51.968Z,21.69
2018-09-18T05:22:51.938Z,21.74
2018-09-18T05:23:51.925Z,21.64
2018-09-18T05:24:51.915Z,21.53
2018-09-18T05:25:51.903Z,21.56
2018-09-18T05:26:51.916Z,21.59
2018-09-18T05:27:51.880Z,21.45
2018-09-18T05:28:51.868Z,21.39
2018-09-18T05:29:51.858Z,21.44
2018-09-18T05:30:51.847Z,21.36
2018-09-18T05:31:51.855Z,21.41
2018-09-18T05:32:51.826Z,21.24
2018-09-18T05:33:51.812Z,21.29
2018-09-18T05:34:51.803Z,21.20
2018-09-18T05:35:51.791Z,21.20
2018-09-18T05:36:51.803Z,21.13
2018-09-18T05:37:51.769Z,21.19
2018-09-18T05:38:51.757Z,21.16
2018-09-18T05:39:51.746Z,21.08
2018-09-18T05:40:51.735Z,21.08
2018-09-18T05:41:51.751Z,21.13
2018-09-18T05:42:51.713Z,21.11
2018-09-18T05:43:51.701Z,21.01
2018-09-18T05:44:51.690Z,21.08
2018-09-18T05:45:51.682Z,21.13
2018-09-18T05:46:51.694Z,21.09
2018-09-18T05:47:51.659Z,21.09
2018-09-18T05:48:51.647Z,21.14
2018-09-18T05:49:51.637Z,21.14
2018-09-18T05:50:51.627Z,21.09
2018-09-18T05:51:51.645Z,21.11
2018-09-18T05:52:51.603Z,21.23
2018-09-18T05:53:51.594Z,21.13
2018-09-18T05:54:51.583Z,21.11
2018-09-18T05:55:51.604Z,21.21
2018-09-18T05:56:51.563Z,21.27
2018-09-18T05:57:51.579Z,21.34
2018-09-18T05:58:51.537Z,21.35
2018-09-18T05:59:51.529Z,21.32
2018-09-18T06:00:54.247Z,21.39
2018-09-18T06:01:51.508Z,21.35
2018-09-18T06:02:51.511Z,21.45
2018-09-18T06:03:51.479Z,21.41
2018-09-18T06:04:51.477Z,21.41
2018-09-18T06:05:51.456Z,21.39
2018-09-18T06:06:51.446Z,21.54
2018-09-18T06:07:51.456Z,21.56
2018-09-18T06:08:51.423Z,21.56
2018-09-18T06:09:51.422Z,21.66
2018-09-18T06:10:51.402Z,21.57
2018-09-18T06:11:51.389Z,21.57
2018-09-18T06:12:51.402Z,21.61
2018-09-18T06:13:51.394Z,21.59
2018-09-18T06:14:51.356Z,21.61
2018-09-18T06:15:51.358Z,21.61
2018-09-18T06:16:51.334Z,21.66
2018-09-18T06:17:51.347Z,21.59
2018-09-18T06:18:51.323Z,21.69
2018-09-18T06:19:51.313Z,21.66
2018-09-18T06:20:51.290Z,21.63
2018-09-18T06:21:51.276Z,21.66
2018-09-18T06:22:51.301Z,21.69
2018-09-18T06:23:51.255Z,21.76
2018-09-18T06:24:51.245Z,21.78
2018-09-18T06:25:51.234Z,21.79
2018-09-18T06:26:51.223Z,21.74
2018-09-18T06:27:51.245Z,21.74
2018-09-18T06:28:51.200Z,21.69
2018-09-18T06:29:51.188Z,21.74
2018-09-18T06:30:51.179Z,21.75
2018-09-18T06:31:51.165Z,21.78
2018-09-18T06:32:51.176Z,21.78
2018-09-18T06:33:51.185Z,21.79
2018-09-18T06:34:51.133Z,21.79
2018-09-18T06:35:51.122Z,21.69
2018-09-18T06:36:51.125Z,21.67
2018-09-18T06:37:51.120Z,21.59
2018-09-18T06:38:51.088Z,21.59
2018-09-18T06:39:51.085Z,21.54
2018-09-18T06:40:51.064Z,21.51
2018-09-18T06:41:51.055Z,21.48
2018-09-18T06:42:51.066Z,21.39
2018-09-18T06:43:51.034Z,21.35
2018-09-18T06:44:51.019Z,21.39
2018-09-18T06:45:51.015Z,21.23
2018-09-18T06:46:50.999Z,21.23
2018-09-18T06:47:51.018Z,21.32
2018-09-18T06:48:50.979Z,21.19
2018-09-18T06:49:50.990Z,21.32
2018-09-18T06:50:50.956Z,21.29
2018-09-18T06:51:50.942Z,21.29
2018-09-18T06:52:51.090Z,21.32
2018-09-18T06:53:53.887Z,21.21
2018-09-18T06:54:50.908Z,21.26
2018-09-18T06:55:50.897Z,21.26
2018-09-18T06:56:50.889Z,21.24
2018-09-18T06:57:50.901Z,21.32
2018-09-18T06:58:50.879Z,21.38
2018-09-18T06:59:50.861Z,21.44
2018-09-18T07:00:50.841Z,21.35
2018-09-18T07:01:50.843Z,21.38
2018-09-18T07:02:50.842Z,21.32
2018-09-18T07:03:50.815Z,21.29
2018-09-18T07:04:50.796Z,21.26
2018-09-18T07:05:50.804Z,21.24
2018-09-18T07:06:50.776Z,21.26
2018-09-18T07:07:50.784Z,21.29
2018-09-18T07:08:50.761Z,21.26
2018-09-18T07:09:50.742Z,21.21
2018-09-18T07:10:50.730Z,21.24
2018-09-18T07:11:50.721Z,21.29
2018-09-18T07:12:50.735Z,21.36
2018-09-18T07:13:50.749Z,21.26
2018-09-18T07:14:50.685Z,21.14
2018-09-18T07:15:50.676Z,21.21
2018-09-18T07:16:50.667Z,21.29
2018-09-18T07:17:50.675Z,21.14
2018-09-18T07:18:50.642Z,21.17
2018-09-18T07:19:50.631Z,21.26
2018-09-18T07:20:50.635Z,21.09
2018-09-18T07:21:50.607Z,21.26
2018-09-18T07:22:50.620Z,21.13
2018-09-18T07:23:50.592Z,21.20
2018-09-18T07:24:50.683Z,21.26
2018-09-18T07:25:50.562Z,21.32
2018-09-18T07:26:50.565Z,21.26
2018-09-18T07:27:50.571Z,21.24
2018-09-18T07:28:50.563Z,21.24
2018-09-18T07:29:50.517Z,21.26
2018-09-18T07:30:50.521Z,21.14
2018-09-18T07:31:50.499Z,21.19
2018-09-18T07:32:50.484Z,21.29
2018-09-18T07:33:50.620Z,21.29
2018-09-18T07:34:50.472Z,21.23
2018-09-18T07:35:50.452Z,21.34
2018-09-18T07:36:50.440Z,21.29
2018-09-18T07:37:50.432Z,21.39
2018-09-18T07:38:50.438Z,21.45
2018-09-18T07:39:50.406Z,21.38
2018-09-18T07:40:50.462Z,21.46
2018-09-18T07:41:50.389Z,21.50
2018-09-18T07:42:50.372Z,21.59
2018-09-18T07:43:50.386Z,21.57
2018-09-18T07:44:50.359Z,21.57
2018-09-18T07:45:50.341Z,21.57
2018-09-18T07:46:50.332Z,21.63
2018-09-18T07:47:50.327Z,21.72
2018-09-18T07:48:50.376Z,21.71
2018-09-18T07:49:50.311Z,21.67
2018-09-18T07:50:50.285Z,21.69
2018-09-18T07:51:50.278Z,21.75
2018-09-18T07:52:50.263Z,21.78
2018-09-18T07:53:50.271Z,21.82
2018-09-18T07:54:50.250Z,21.85
2018-09-18T07:55:50.228Z,21.90
2018-09-18T07:56:50.220Z,21.88
2018-09-18T07:57:50.206Z,21.91
2018-09-18T07:58:50.229Z,21.90
2018-09-18T07:59:50.188Z,21.98
2018-09-18T08:00:50.177Z,21.98
2018-09-18T08:01:50.178Z,21.99
2018-09-18T08:02:50.152Z,22.04
2018-09-18T08:03:50.162Z,22.06
2018-09-18T08:04:50.227Z,22.02
2018-09-18T08:05:50.119Z,21.99
2018-09-18T08:06:50.106Z,22.01
2018-09-18T08:07:50.095Z,22.06
2018-09-18T08:08:50.104Z,21.97
2018-09-18T08:09:50.137Z,22.06
2018-09-18T08:10:50.129Z,22.06
2018-09-18T08:11:50.053Z,22.07
2018-09-18T08:12:50.063Z,22.14
2018-09-18T08:13:50.049Z,22.13
2018-09-18T08:14:50.017Z,22.13
2018-09-18T08:15:50.006Z,22.14
2018-09-18T08:16:49.994Z,22.25
2018-09-18T08:17:49.998Z,22.23
2018-09-18T08:18:50.004Z,22.25
2018-09-18T08:19:50.140Z,22.22
2018-09-18T08:20:49.955Z,22.27
2018-09-18T08:21:49.945Z,22.29
2018-09-18T08:22:49.928Z,22.31
2018-09-18T08:23:49.948Z,22.39
2018-09-18T08:24:49.910Z,22.38
2018-09-18T08:25:50.069Z,22.37
2018-09-18T08:26:49.886Z,22.35
2018-09-18T08:27:49.873Z,22.32
2018-09-18T08:28:49.885Z,22.44
2018-09-18T08:29:49.849Z,22.49
2018-09-18T08:30:49.858Z,22.50
2018-09-18T08:31:49.840Z,22.54
2018-09-18T08:32:49.844Z,22.47
2018-09-18T08:33:49.825Z,22.53
2018-09-18T08:34:49.796Z,22.60
2018-09-18T08:35:49.783Z,22.59
2018-09-18T08:36:49.771Z,22.54
2018-09-18T08:37:50.082Z,22.57
2018-09-18T08:38:49.774Z,22.64
2018-09-18T08:39:49.831Z,22.59
2018-09-18T08:40:49.744Z,22.54
2018-09-18T08:41:49.722Z,22.59
2018-09-18T08:42:49.715Z,22.56
2018-09-18T08:43:49.729Z,22.62
2018-09-18T08:44:49.683Z,22.67
2018-09-18T08:45:49.671Z,22.59
2018-09-18T08:46:49.668Z,22.68
2018-09-18T08:47:49.648Z,22.67
2018-09-18T08:48:49.668Z,22.65
2018-09-18T08:49:49.626Z,22.69
2018-09-18T08:50:49.617Z,22.68
2018-09-18T08:51:49.665Z,22.71
2018-09-18T08:52:49.610Z,22.69
2018-09-18T08:53:49.635Z,22.67
2018-09-18T08:54:49.586Z,22.69
2018-09-18T08:55:49.567Z,22.72
2018-09-18T08:56:49.547Z,22.68
2018-09-18T08:57:49.546Z,22.69
2018-09-18T08:58:49.589Z,22.68
2018-09-18T08:59:49.554Z,22.69
2018-09-18T09:00:49.503Z,22.74
2018-09-18T09:01:49.523Z,22.72
2018-09-18T09:02:49.481Z,22.68
2018-09-18T09:03:49.517Z,22.62
2018-09-18T09:04:49.486Z,22.64
2018-09-18T09:05:49.545Z,22.68
2018-09-18T09:06:49.462Z,22.64
2018-09-18T09:07:49.527Z,22.71
2018-09-18T09:08:49.660Z,22.69
2018-09-18T09:09:49.401Z,22.67
2018-09-18T09:10:49.406Z,22.68
2018-09-18T09:11:49.388Z,22.77
2018-09-18T09:12:49.369Z,22.74
2018-09-18T09:13:49.391Z,22.72
2018-09-18T09:14:49.472Z,22.77
2018-09-18T09:15:49.385Z,22.78
2018-09-18T09:16:49.328Z,22.72
2018-09-18T09:17:49.315Z,22.80
2018-09-18T09:18:49.302Z,22.80
2018-09-18T09:19:49.323Z,22.77
2018-09-18T09:20:49.384Z,22.75
2018-09-18T09:21:49.386Z,22.69
2018-09-18T09:22:49.288Z,22.78
2018-09-18T09:23:49.248Z,22.67
2018-09-18T09:24:49.296Z,22.72
2018-09-18T09:25:49.246Z,22.69
2018-09-18T09:26:49.304Z,22.80
2018-09-18T09:27:49.282Z,22.74
2018-09-18T09:28:49.205Z,22.77
2018-09-18T09:29:49.254Z,22.77
2018-09-18T09:30:49.169Z,22.83
2018-09-18T09:31:49.157Z,22.80
2018-09-18T09:32:49.204Z,22.84
2018-09-18T09:33:49.169Z,22.71
2018-09-18T09:34:49.164Z,22.71
2018-09-18T09:35:49.117Z,22.83
2018-09-18T09:36:49.140Z,22.84
2018-09-18T09:37:49.090Z,22.80
2018-09-18T09:38:49.229Z,22.93
2018-09-18T09:39:49.092Z,22.97
2018-09-18T09:40:49.106Z,23.05
2018-09-18T09:41:49.051Z,23.05
2018-09-18T09:42:49.041Z,23.02
2018-09-18T09:43:49.058Z,23.11
2018-09-18T09:44:49.052Z,23.07
2018-09-18T09:45:49.002Z,23.05
2018-09-18T09:46:49.017Z,23.08
2018-09-18T09:47:48.979Z,23.08
2018-09-18T09:48:48.976Z,23.12
2018-09-18T09:49:48.977Z,23.12
2018-09-18T09:50:48.957Z,23.12
2018-09-18T09:51:48.957Z,23.17
2018-09-18T09:52:48.922Z,23.15
2018-09-18T09:53:48.912Z,23.22
2018-09-18T09:54:48.923Z,23.32
2018-09-18T09:55:48.895Z,23.24
2018-09-18T09:56:48.954Z,23.26
2018-09-18T09:57:48.866Z,23.38
2018-09-18T09:58:48.856Z,23.27
2018-09-18T09:59:48.882Z,23.26
2018-09-18T10:00:48.832Z,23.35
2018-09-18T10:01:48.829Z,23.32
2018-09-18T10:02:48.822Z,23.31
2018-09-18T10:03:48.800Z,23.29
2018-09-18T10:04:48.823Z,23.31
2018-09-18T10:05:48.777Z,23.22
2018-09-18T10:06:48.766Z,23.35
2018-09-18T10:07:48.759Z,23.35
2018-09-18T10:08:48.744Z,23.42
2018-09-18T10:09:48.757Z,23.38
2018-09-18T10:10:48.883Z,23.39
2018-09-18T10:11:48.711Z,23.50
2018-09-18T10:12:48.701Z,23.49
2018-09-18T10:13:48.702Z,23.53
2018-09-18T10:14:48.743Z,23.50
2018-09-18T10:15:48.679Z,23.49
2018-09-18T10:16:48.659Z,23.46
2018-09-18T10:17:48.747Z,23.39
2018-09-18T10:18:48.636Z,23.46
2018-09-18T10:19:48.642Z,23.43
2018-09-18T10:20:48.614Z,23.43
2018-09-18T10:21:48.600Z,23.34
2018-09-18T10:22:48.587Z,23.45
2018-09-18T10:23:48.604Z,23.35
2018-09-18T10:24:48.586Z,23.34
2018-09-18T10:25:48.621Z,23.31
2018-09-18T10:26:48.673Z,23.35
2018-09-18T10:27:48.544Z,23.39
2018-09-18T10:28:48.546Z,23.38
2018-09-18T10:29:48.677Z,23.34
2018-09-18T10:30:48.532Z,23.23
2018-09-18T10:31:48.503Z,23.26
2018-09-18T10:32:48.585Z,23.27
2018-09-18T10:33:48.483Z,23.23
2018-09-18T10:34:48.500Z,23.24
2018-09-18T10:35:48.442Z,23.26
2018-09-18T10:36:48.431Z,23.32
2018-09-18T10:37:48.442Z,23.34
2018-09-18T10:38:48.424Z,23.24
2018-09-18T10:39:48.480Z,23.35
2018-09-18T10:40:48.475Z,23.43
2018-09-18T10:41:48.427Z,23.32
2018-09-18T10:42:48.406Z,23.34
2018-09-18T10:43:48.368Z,23.39
2018-09-18T10:44:48.405Z,23.40
2018-09-18T10:45:48.334Z,23.49
2018-09-18T10:46:48.344Z,23.55
2018-09-18T10:47:48.342Z,23.52
2018-09-18T10:48:48.362Z,23.64
2018-09-18T10:49:48.308Z,23.70
2018-09-18T10:50:48.277Z,23.71
2018-09-18T10:51:48.286Z,23.75
2018-09-18T10:52:48.267Z,23.82
2018-09-18T10:53:48.258Z,23.86
2018-09-18T10:54:48.235Z,23.82
2018-09-18T10:55:48.258Z,23.83
2018-09-18T10:56:48.232Z,23.86
2018-09-18T10:57:48.200Z,23.85
2018-09-18T10:58:48.192Z,23.87
2018-09-18T10:59:48.203Z,23.85
2018-09-18T11:00:48.201Z,23.86
2018-09-18T11:01:48.165Z,23.79
2018-09-18T11:02:48.172Z,23.86
2018-09-18T11:03:48.130Z,23.79
2018-09-18T11:04:48.138Z,23.85
2018-09-18T11:05:48.136Z,23.85
2018-09-18T11:06:48.114Z,23.79
2018-09-18T11:07:48.244Z,23.85
2018-09-18T11:08:48.105Z,23.89
2018-09-18T11:09:48.064Z,23.87
2018-09-18T11:10:48.079Z,23.86
2018-09-18T11:11:48.110Z,24.00
2018-09-18T11:12:48.032Z,23.94
2018-09-18T11:13:48.131Z,23.95
2018-09-18T11:14:48.068Z,23.95
2018-09-18T11:15:48.184Z,23.97
2018-09-18T11:16:48.080Z,23.98
2018-09-18T11:17:47.987Z,24.07
2018-09-18T11:18:48.002Z,24.04
2018-09-18T11:19:47.987Z,24.05
2018-09-18T11:20:47.984Z,24.17
2018-09-18T11:21:48.219Z,24.24
2018-09-18T11:22:47.919Z,24.34
2018-09-18T11:23:47.909Z,24.47
2018-09-18T11:24:47.913Z,24.34
2018-09-18T11:25:47.938Z,24.49
2018-09-18T11:26:47.881Z,24.31
2018-09-18T11:27:47.865Z,24.38
2018-09-18T11:28:47.854Z,24.37
2018-09-18T11:29:47.853Z,24.27
2018-09-18T11:30:47.853Z,24.17
2018-09-18T11:31:47.852Z,24.23
2018-09-18T11:32:47.924Z,24.14
2018-09-18T11:33:47.798Z,24.07
2018-09-18T11:34:47.812Z,24.08
2018-09-18T11:35:47.796Z,24.02
2018-09-18T11:36:47.764Z,24.00
2018-09-18T11:37:47.788Z,23.97
2018-09-18T11:38:47.744Z,24.00
2018-09-18T11:39:47.738Z,23.98
2018-09-18T11:40:47.741Z,23.95
2018-09-18T11:41:47.709Z,23.94
2018-09-18T11:42:47.700Z,23.90
2018-09-18T11:43:47.699Z,23.86
2018-09-18T11:44:47.675Z,23.82
2018-09-18T11:45:47.944Z,23.86
2018-09-18T11:46:47.748Z,23.82
2018-09-18T11:47:47.641Z,23.87
2018-09-18T11:48:47.632Z,23.79
2018-09-18T11:49:47.620Z,23.89
2018-09-18T11:50:47.630Z,23.77
2018-09-18T11:51:47.607Z,23.79
2018-09-18T11:52:47.608Z,23.75
2018-09-18T11:53:47.575Z,23.75
2018-09-18T11:54:47.563Z,23.85
2018-09-18T11:55:47.574Z,23.72
2018-09-18T11:56:47.663Z,23.77
2018-09-18T11:57:47.538Z,23.77
2018-09-18T11:58:47.521Z,23.71
2018-09-18T11:59:47.508Z,23.75
2018-09-18T12:00:47.519Z,23.70
2018-09-18T12:01:47.486Z,23.72
2018-09-18T12:02:47.533Z,23.72
2018-09-18T12:03:47.475Z,23.65
2018-09-18T12:04:47.521Z,23.61
2018-09-18T12:05:47.463Z,23.61
2018-09-18T12:06:47.431Z,23.67
2018-09-18T12:07:47.420Z,23.58
2018-09-18T12:08:47.462Z,23.53
2018-09-18T12:09:47.403Z,23.49
2018-09-18T12:10:47.408Z,23.61
2018-09-18T12:11:47.375Z,23.55
2018-09-18T12:12:47.364Z,23.52
2018-09-18T12:13:47.352Z,23.60
2018-09-18T12:14:47.341Z,23.55
2018-09-18T12:15:47.361Z,23.52
2018-09-18T12:16:47.331Z,23.52
2018-09-18T12:17:47.308Z,23.53
2018-09-18T12:18:47.297Z,23.50
2018-09-18T12:19:47.288Z,23.52
2018-09-18T12:20:47.296Z,23.40
2018-09-18T12:21:47.274Z,23.46
2018-09-18T12:22:47.328Z,23.35
2018-09-18T12:23:47.241Z,23.47
2018-09-18T12:24:47.230Z,23.43
2018-09-18T12:25:47.241Z,23.43
2018-09-18T12:26:47.209Z,23.45
2018-09-18T12:27:47.214Z,23.42
2018-09-18T12:28:47.226Z,23.43
2018-09-18T12:29:47.174Z,23.46
2018-09-18T12:30:47.184Z,23.42
2018-09-18T12:31:47.155Z,23.46
2018-09-18T12:32:47.166Z,23.42
2018-09-18T12:33:47.139Z,23.38
2018-09-18T12:34:47.119Z,23.35
2018-09-18T12:35:47.190Z,23.45
2018-09-18T12:36:47.119Z,23.45
2018-09-18T12:37:47.085Z,23.39
2018-09-18T12:38:47.076Z,23.38
2018-09-18T12:39:47.073Z,23.38
2018-09-18T12:40:47.052Z,23.38
2018-09-18T12:41:47.153Z,23.42
2018-09-18T12:42:47.099Z,23.35
2018-09-18T12:43:47.021Z,23.31
2018-09-18T12:44:47.007Z,23.38
2018-09-18T12:45:47.007Z,23.39
2018-09-18T12:46:47.008Z,23.31
2018-09-18T12:47:46.975Z,23.35
2018-09-18T12:48:47.038Z,23.42
2018-09-18T12:49:47.078Z,23.40
2018-09-18T12:50:47.018Z,23.38
2018-09-18T12:51:46.961Z,23.42
2018-09-18T12:52:46.918Z,23.45